Portada
METAR-TAF:

METAR-TAF

Aeroports :

Perry-Foley Airport

Perry, Florida, Estats Units d'Amèrica

latitud: 30-04-19N, longitud: 083-34-25W, altitud: 13 m

Observació

L'informe es va fer fa 16 minuts, a les 17:15 UTC
Vent 9 kt del Nord/Nord-Oest, variant entre Nord-Oest i Nord
Temperatura 11°C
Humitat 50%
Pressió 1024 hPa
Visibilitat: 16.1 km
Cel clar

METAR: K40J 271715Z AUTO 33009KT 310V010 10SM CLR 11/01 A3023 RMK AO2 T01120009

Hora: 12:31 (17:31 UTC)


TAF: manca

Observacions i pronòstics meteorològics de més de 4000 aeroports (METAR i TAF).

Les estacions disponibles són els punts grocs i vermells al mapa.

Posi el ratolí al punt desitjat per veure el nom de l'estació.

Feu clic per veure les observacions i els pronòstics meteorològics.

Per canviar el mapa: feu clic els botons verds amb una creu de color negre per apropar; al botó verd amb un guió per allunyar la imatge; o en les fletxes verdes per a mapes adjacents.


METAR-TAF: